Time;durP1;ratioP1;P1;durP2;ratioP2;P2;SDS_P1;SDS_P2;PMS_P1;PMS_P2;Temp;Humidity;BMP_temperature;BMP_pressure;BME280_temperature;BME280_humidity;BME280_pressure;Samples;Min_cycle;Max_cycle;Signal;HPM_P1;HPM_P2
2023/02/06 00:00:20;;;;;;;21.45;5.45;;;4.30;99.90;;;;;;5113689;28;20097;-72
2023/02/06 00:02:46;;;;;;;21.60;5.45;;;4.30;99.90;;;;;;5113768;28;20035;-72
2023/02/06 00:05:11;;;;;;;20.30;5.20;;;4.50;99.90;;;;;;5112493;28;20088;-72
2023/02/06 00:07:37;;;;;;;31.75;6.18;;;4.50;99.90;;;;;;5112423;28;20116;-72
2023/02/06 00:10:03;;;;;;;26.00;5.60;;;4.40;99.90;;;;;;5094903;28;20032;-72
2023/02/06 00:12:28;;;;;;;25.17;4.93;;;4.30;99.90;;;;;;5112592;28;20066;-72
2023/02/06 00:14:54;;;;;;;24.17;5.05;;;4.50;99.90;;;;;;5113741;28;20088;-72
2023/02/06 00:17:19;;;;;;;25.83;6.95;;;4.50;99.90;;;;;;5112265;28;20175;-72
2023/02/06 00:19:45;;;;;;;21.60;5.07;;;4.40;99.90;;;;;;5113242;28;20069;-72
2023/02/06 00:22:13;;;;;;;23.48;6.28;;;4.40;99.90;;;;;;5112769;28;20036;-72
2023/02/06 00:24:39;;;;;;;19.20;4.63;;;4.40;99.90;;;;;;5113308;28;20047;-72
2023/02/06 00:27:06;;;;;;;18.42;4.15;;;4.40;99.90;;;;;;5112062;28;20032;-72
2023/02/06 00:29:32;;;;;;;20.40;4.00;;;4.60;99.90;;;;;;5111648;28;20043;-72
2023/02/06 00:31:57;;;;;;;16.95;4.30;;;4.50;99.90;;;;;;5113329;28;20677;-72
2023/02/06 00:34:23;;;;;;;23.38;4.43;;;4.50;99.90;;;;;;5111873;28;20095;-72
2023/02/06 00:36:50;;;;;;;25.20;4.50;;;4.40;99.90;;;;;;5094896;28;20073;-72
2023/02/06 00:39:16;;;;;;;15.75;4.10;;;4.50;99.90;;;;;;5111412;28;20082;-72
2023/02/06 00:41:42;;;;;;;14.63;4.07;;;4.60;99.90;;;;;;5095040;28;20043;-72
2023/02/06 00:44:08;;;;;;;20.40;4.75;;;4.40;99.90;;;;;;5112918;28;20507;-72
2023/02/06 00:46:33;;;;;;;26.60;4.85;;;4.50;99.90;;;;;;5111699;28;20438;-72
2023/02/06 00:48:59;;;;;;;20.52;4.22;;;4.60;99.90;;;;;;5112632;28;20036;-73
2023/02/06 00:51:25;;;;;;;20.27;6.13;;;4.50;99.90;;;;;;5112915;28;20036;-72
2023/02/06 00:53:50;;;;;;;22.00;4.70;;;4.40;99.90;;;;;;5111543;28;20478;-72
2023/02/06 00:56:16;;;;;;;23.02;5.13;;;4.50;99.90;;;;;;5112852;28;20372;-72
2023/02/06 00:58:41;;;;;;;17.30;5.65;;;4.40;99.90;;;;;;5112537;28;20043;-72
2023/02/06 01:01:07;;;;;;;24.45;4.65;;;4.60;99.90;;;;;;5112637;28;20407;-72
2023/02/06 01:03:33;;;;;;;21.92;4.53;;;4.60;99.90;;;;;;5111273;28;20040;-71
2023/02/06 01:05:58;;;;;;;28.88;4.78;;;4.40;99.90;;;;;;5111288;28;20049;-71
2023/02/06 01:08:24;;;;;;;13.88;3.78;;;4.50;99.90;;;;;;5112177;28;20082;-71
2023/02/06 01:10:49;;;;;;;27.15;5.65;;;4.50;99.90;;;;;;5112552;28;20028;-71
2023/02/06 01:13:15;;;;;;;21.83;5.68;;;4.40;99.90;;;;;;5111267;28;20047;-71
2023/02/06 01:15:41;;;;;;;25.73;5.35;;;4.40;99.90;;;;;;5111532;28;20141;-71
2023/02/06 01:18:06;;;;;;;18.83;5.55;;;4.50;99.90;;;;;;5111359;28;20050;-71
2023/02/06 01:20:32;;;;;;;22.45;6.28;;;4.40;99.90;;;;;;5112027;28;20036;-71
2023/02/06 01:22:57;;;;;;;23.90;5.68;;;4.40;99.90;;;;;;5112232;28;20036;-71
2023/02/06 01:25:23;;;;;;;27.77;6.70;;;4.40;99.90;;;;;;5111034;28;20036;-71
2023/02/06 01:27:48;;;;;;;23.02;5.55;;;4.30;99.90;;;;;;5111270;28;20039;-71
2023/02/06 01:30:15;;;;;;;21.73;4.75;;;4.50;99.90;;;;;;5110592;28;20165;-71
2023/02/06 01:32:41;;;;;;;28.02;5.10;;;4.40;99.90;;;;;;5109929;28;20039;-71
2023/02/06 01:35:08;;;;;;;14.48;3.90;;;4.60;99.90;;;;;;5110855;28;20548;-71
2023/02/06 01:37:35;;;;;;;23.95;5.68;;;4.40;99.90;;;;;;5110793;28;20498;-71
2023/02/06 01:40:00;;;;;;;24.45;6.32;;;4.40;99.90;;;;;;5093776;28;20048;-71
2023/02/06 01:42:26;;;;;;;18.40;4.32;;;4.50;99.90;;;;;;5110734;28;20038;-71
2023/02/06 01:45:25;;;;;;;24.45;5.82;;;4.30;99.90;;;;;;5112189;28;20031;-72
2023/02/06 01:47:57;;;;;;;22.70;6.03;;;4.40;99.90;;;;;;5110671;28;20035;-71
2023/02/06 01:50:23;;;;;;;29.40;4.88;;;4.30;99.90;;;;;;5093681;28;20407;-71
2023/02/06 01:52:49;;;;;;;27.25;5.30;;;4.40;99.90;;;;;;5112150;28;20043;-71
2023/02/06 01:55:15;;;;;;;21.92;4.78;;;4.40;99.90;;;;;;5112137;28;20042;-71
2023/02/06 01:57:41;;;;;;;23.63;5.85;;;4.40;99.90;;;;;;5110635;28;20039;-71
2023/02/06 02:00:10;;;;;;;26.45;5.25;;;4.20;99.90;;;;;;5111534;28;20039;-71
2023/02/06 02:02:38;;;;;;;23.65;5.63;;;4.30;99.90;;;;;;5111736;28;20036;-71
2023/02/06 02:05:06;;;;;;;33.70;5.32;;;4.30;99.90;;;;;;5111912;28;20387;-71
2023/02/06 02:07:36;;;;;;;18.13;4.40;;;4.40;99.90;;;;;;5111770;28;20374;-71
2023/02/06 02:10:02;;;;;;;20.75;4.45;;;4.40;99.90;;;;;;5110415;28;20075;-71
2023/02/06 02:12:28;;;;;;;21.10;5.03;;;4.30;99.90;;;;;;5110535;28;20054;-71
2023/02/06 02:14:54;;;;;;;21.75;5.00;;;4.20;99.90;;;;;;5110454;28;20039;-71
2023/02/06 02:17:34;;;;;;;27.20;5.30;;;4.10;99.90;;;;;;5111751;28;20039;-71
2023/02/06 02:20:28;;;;;;;25.55;4.88;;;4.10;99.90;;;;;;5111583;28;20058;-71
2023/02/06 02:23:19;;;;;;;25.25;4.53;;;4.30;99.90;;;;;;5111769;28;20047;-71
2023/02/06 02:26:26;;;;;;;25.65;5.63;;;4.00;99.90;;;;;;5111695;28;20032;-71
2023/02/06 02:29:19;;;;;;;20.38;4.97;;;4.10;99.90;;;;;;5110045;28;20035;-71
2023/02/06 02:31:54;;;;;;;23.20;4.55;;;4.00;99.90;;;;;;5110392;28;20040;-71
2023/02/06 02:34:38;;;;;;;20.70;4.43;;;4.20;99.90;;;;;;5110627;28;20047;-71
2023/02/06 02:37:21;;;;;;;19.83;3.67;;;4.00;99.90;;;;;;5111594;28;20487;-71
2023/02/06 02:39:54;;;;;;;16.67;3.95;;;4.10;99.90;;;;;;5110082;28;20123;-72
2023/02/06 02:42:30;;;;;;;20.80;3.95;;;4.10;99.90;;;;;;5111417;28;20096;-71
2023/02/06 02:45:04;;;;;;;19.55;4.82;;;3.90;99.90;;;;;;5112810;28;20039;-71
2023/02/06 02:47:40;;;;;;;15.23;3.72;;;4.00;99.90;;;;;;5115382;28;20039;-71
2023/02/06 02:50:06;;;;;;;16.02;3.65;;;3.90;99.90;;;;;;5115024;28;20089;-71
2023/02/06 02:52:32;;;;;;;15.60;3.33;;;4.00;99.90;;;;;;5113869;28;20088;-71
2023/02/06 02:54:57;;;;;;;20.35;4.22;;;3.90;99.90;;;;;;5113874;28;20036;-71
2023/02/06 02:57:27;;;;;;;16.25;3.83;;;3.90;99.90;;;;;;5113806;28;20035;-71
2023/02/06 02:59:57;;;;;;;26.20;5.15;;;3.70;99.90;;;;;;5113461;28;20065;-71
2023/02/06 03:02:33;;;;;;;19.88;3.63;;;3.80;99.90;;;;;;5113642;28;20039;-71
2023/02/06 03:05:03;;;;;;;19.52;6.50;;;3.70;99.90;;;;;;5115062;28;20410;-71
2023/02/06 03:08:17;;;;;;;19.15;3.97;;;3.80;99.90;;;;;;5113654;28;20058;-71
2023/02/06 03:13:23;;;;;;;23.00;5.75;;;3.80;99.90;;;;;;5557076;22;20078;-72
2023/02/06 03:16:10;;;;;;;26.17;4.18;;;3.80;99.90;;;;;;5053686;28;20033;-72
2023/02/06 03:18:40;;;;;;;25.60;4.97;;;3.80;99.90;;;;;;5011338;28;20045;-72
2023/02/06 03:21:09;;;;;;;20.15;4.22;;;3.80;99.90;;;;;;4998251;28;20429;-72
2023/02/06 03:23:38;;;;;;;19.48;4.28;;;3.90;99.90;;;;;;5007496;28;20042;-72
2023/02/06 03:26:08;;;;;;;21.77;3.78;;;3.80;99.90;;;;;;5014293;28;20449;-72
2023/02/06 03:28:38;;;;;;;19.67;3.92;;;4.00;99.90;;;;;;5012844;28;20038;-72
2023/02/06 03:31:08;;;;;;;20.30;3.90;;;3.80;99.90;;;;;;5013801;28;20037;-72
2023/02/06 03:33:40;;;;;;;19.63;3.95;;;3.70;99.90;;;;;;5012536;28;20506;-72
2023/02/06 03:36:08;;;;;;;21.95;4.88;;;3.90;99.90;;;;;;5013990;28;20120;-72
2023/02/06 03:38:34;;;;;;;16.88;3.97;;;4.00;99.90;;;;;;5013829;28;20049;-72
2023/02/06 03:41:01;;;;;;;20.60;4.60;;;3.80;99.90;;;;;;5012151;28;20045;-72
2023/02/06 03:43:28;;;;;;;20.15;4.40;;;3.90;99.90;;;;;;5012882;28;20050;-72
2023/02/06 03:46:00;;;;;;;18.45;6.05;;;3.90;99.90;;;;;;5012303;28;20088;-72
2023/02/06 03:48:32;;;;;;;19.50;4.93;;;3.90;99.90;;;;;;5012626;28;20037;-72
2023/02/06 03:51:03;;;;;;;15.95;3.55;;;3.80;99.90;;;;;;5012467;28;20076;-72
2023/02/06 03:53:31;;;;;;;17.80;4.40;;;3.80;99.90;;;;;;5011865;28;20041;-72
2023/02/06 03:56:05;;;;;;;23.08;4.40;;;3.70;99.90;;;;;;5011474;28;20049;-72
2023/02/06 03:58:30;;;;;;;22.33;7.32;;;3.90;99.90;;;;;;5013159;28;20117;-72
2023/02/06 04:00:56;;;;;;;21.30;4.82;;;3.80;99.90;;;;;;5012031;28;20076;-72
2023/02/06 04:03:22;;;;;;;26.75;4.55;;;3.90;99.90;;;;;;5011622;28;20511;-72
2023/02/06 04:05:48;;;;;;;25.73;6.50;;;3.70;99.90;;;;;;5012048;28;20038;-72
2023/02/06 04:08:14;;;;;;;14.55;4.80;;;3.80;99.90;;;;;;5011898;28;20041;-72
2023/02/06 04:10:39;;;;;;;21.75;4.00;;;3.80;99.90;;;;;;5012017;28;20038;-72
2023/02/06 04:13:05;;;;;;;24.38;5.38;;;3.90;99.90;;;;;;5011298;28;20045;-72
2023/02/06 04:15:30;;;;;;;21.08;4.93;;;4.00;99.90;;;;;;5013476;28;20042;-72
2023/02/06 04:17:56;;;;;;;26.77;4.72;;;3.90;99.90;;;;;;5013332;28;20520;-72
2023/02/06 04:20:21;;;;;;;25.23;5.97;;;4.00;99.90;;;;;;4995564;28;20042;-72
2023/02/06 04:22:47;;;;;;;20.98;4.90;;;3.90;99.90;;;;;;5012413;28;20121;-72
2023/02/06 04:25:12;;;;;;;20.33;5.03;;;3.80;99.90;;;;;;5011642;28;20092;-72
2023/02/06 04:27:38;;;;;;;18.15;4.65;;;3.80;99.90;;;;;;5012883;28;20068;-72
2023/02/06 04:30:05;;;;;;;20.30;5.32;;;4.00;99.90;;;;;;5013118;28;20080;-72
2023/02/06 04:32:30;;;;;;;19.52;3.90;;;4.10;99.90;;;;;;5011145;28;20050;-72
2023/02/06 04:34:56;;;;;;;17.23;3.95;;;4.00;99.90;;;;;;5011837;28;20050;-72
2023/02/06 04:37:21;;;;;;;17.65;4.68;;;4.10;99.90;;;;;;5011510;28;20128;-72
2023/02/06 04:39:47;;;;;;;19.85;3.97;;;4.10;99.90;;;;;;5010439;28;20037;-72
2023/02/06 04:42:12;;;;;;;20.33;4.82;;;4.00;99.90;;;;;;5011166;28;20041;-72
2023/02/06 04:44:38;;;;;;;25.85;5.28;;;4.10;99.90;;;;;;5010838;28;20060;-72
2023/02/06 04:47:04;;;;;;;21.10;4.82;;;3.90;99.90;;;;;;5000568;28;20037;-72
2023/02/06 04:49:30;;;;;;;18.75;4.68;;;4.00;99.90;;;;;;4990896;28;20408;-72
2023/02/06 04:51:55;;;;;;;16.17;4.03;;;4.20;99.90;;;;;;4975155;28;20463;-72
2023/02/06 04:54:21;;;;;;;18.73;3.58;;;4.20;99.90;;;;;;4992639;28;20042;-73
2023/02/06 04:56:46;;;;;;;15.35;4.63;;;4.20;99.90;;;;;;4992941;28;20042;-72
2023/02/06 04:59:12;;;;;;;18.52;3.95;;;4.10;99.90;;;;;;4992647;28;20402;-73
2023/02/06 05:01:38;;;;;;;21.98;5.03;;;4.20;99.90;;;;;;4991694;28;20044;-72
2023/02/06 05:04:04;;;;;;;17.35;4.07;;;4.10;99.90;;;;;;4991296;28;20413;-72
2023/02/06 05:06:30;;;;;;;21.95;4.60;;;4.10;99.90;;;;;;4992747;28;20042;-72
2023/02/06 05:08:57;;;;;;;19.60;4.40;;;4.10;99.90;;;;;;4993020;28;20049;-72
2023/02/06 05:11:23;;;;;;;21.00;4.05;;;4.10;99.90;;;;;;4991402;28;20067;-72
2023/02/06 05:13:48;;;;;;;15.52;3.80;;;3.90;99.90;;;;;;4990823;28;20182;-73
2023/02/06 05:16:16;;;;;;;21.05;5.55;;;4.10;99.90;;;;;;4992894;28;20654;-73
2023/02/06 05:18:43;;;;;;;21.48;4.40;;;3.90;99.90;;;;;;4991077;28;20093;-72
2023/02/06 05:21:09;;;;;;;13.68;4.53;;;4.10;99.90;;;;;;4991054;28;20503;-72
2023/02/06 05:23:35;;;;;;;19.65;6.00;;;4.20;99.90;;;;;;4974418;28;20049;-73
2023/02/06 05:26:01;;;;;;;30.90;6.53;;;4.00;99.90;;;;;;4991018;28;20065;-73
2023/02/06 05:28:32;;;;;;;15.52;4.65;;;4.10;99.90;;;;;;5000906;28;20076;-71
2023/02/06 05:30:58;;;;;;;21.58;4.60;;;4.10;99.90;;;;;;5004181;28;20065;-71
2023/02/06 05:33:24;;;;;;;23.00;5.65;;;4.00;99.90;;;;;;5004753;28;20034;-71
2023/02/06 05:35:50;;;;;;;26.60;5.70;;;4.20;99.90;;;;;;4994072;28;20034;-71
2023/02/06 05:38:15;;;;;;;22.25;4.10;;;4.10;99.90;;;;;;4996514;28;20136;-71
2023/02/06 05:40:41;;;;;;;25.35;5.22;;;4.10;99.90;;;;;;4990935;28;20047;-72
2023/02/06 05:43:07;;;;;;;23.70;5.95;;;4.10;99.90;;;;;;4990570;28;20167;-72
2023/02/06 05:45:32;;;;;;;20.63;4.43;;;4.00;99.90;;;;;;4990968;28;20431;-71
2023/02/06 05:47:58;;;;;;;20.38;5.75;;;4.00;99.90;;;;;;4992148;28;20052;-71
2023/02/06 05:50:24;;;;;;;24.10;6.10;;;4.10;99.90;;;;;;4995447;28;20046;-71
2023/02/06 05:52:49;;;;;;;17.52;4.20;;;4.20;99.90;;;;;;5008568;28;20756;-71
2023/02/06 05:55:17;;;;;;;21.73;4.50;;;3.90;99.90;;;;;;4991073;28;20491;-71
2023/02/06 05:57:43;;;;;;;17.67;3.97;;;4.10;99.90;;;;;;4992152;28;20053;-71
2023/02/06 06:00:09;;;;;;;21.33;4.47;;;4.20;99.90;;;;;;4992171;28;20117;-71
2023/02/06 06:02:34;;;;;;;18.67;4.88;;;4.20;99.90;;;;;;5002273;28;20405;-71
2023/02/06 06:05:00;;;;;;;30.40;5.05;;;4.20;99.90;;;;;;5006095;28;20263;-71
2023/02/06 06:07:26;;;;;;;24.58;5.25;;;4.10;99.90;;;;;;4990914;28;20042;-72
2023/02/06 06:09:51;;;;;;;21.80;6.82;;;4.30;99.90;;;;;;5007318;28;20059;-71
2023/02/06 06:12:17;;;;;;;28.58;6.07;;;4.30;99.90;;;;;;4990432;28;20427;-71
2023/02/06 06:14:42;;;;;;;18.55;4.45;;;4.20;99.90;;;;;;4990714;28;20546;-71
2023/02/06 06:17:08;;;;;;;25.13;4.50;;;4.20;99.90;;;;;;4990630;28;20053;-71
2023/02/06 06:19:34;;;;;;;30.10;5.10;;;4.00;99.90;;;;;;4993537;28;20053;-71
2023/02/06 06:22:00;;;;;;;26.13;4.47;;;4.30;99.90;;;;;;4994915;28;20035;-71
2023/02/06 06:24:25;;;;;;;25.15;5.95;;;4.10;99.90;;;;;;4994465;28;20384;-71
2023/02/06 06:26:51;;;;;;;14.60;5.00;;;4.30;99.90;;;;;;4994442;28;20049;-72
2023/02/06 06:29:17;;;;;;;22.90;4.47;;;4.10;99.90;;;;;;4994302;28;20038;-72
2023/02/06 06:31:42;;;;;;;26.02;5.15;;;4.30;99.90;;;;;;4995430;28;20077;-71
2023/02/06 06:34:08;;;;;;;25.60;5.45;;;4.10;99.90;;;;;;4995174;28;20038;-71
2023/02/06 06:36:33;;;;;;;23.70;4.63;;;4.10;99.90;;;;;;4993983;28;20046;-71
2023/02/06 06:38:59;;;;;;;24.40;3.90;;;4.20;99.90;;;;;;4995629;28;20049;-72
2023/02/06 06:41:24;;;;;;;23.77;4.38;;;4.20;99.90;;;;;;4987896;28;20034;-71
2023/02/06 06:43:53;;;;;;;23.48;5.63;;;4.20;99.90;;;;;;5033312;28;20040;-71
2023/02/06 06:46:18;;;;;;;24.77;4.97;;;4.30;99.90;;;;;;5033369;28;20038;-71
2023/02/06 06:48:44;;;;;;;20.92;3.60;;;4.30;99.90;;;;;;5034517;28;20090;-71
2023/02/06 06:51:09;;;;;;;25.63;4.82;;;4.20;99.90;;;;;;5033133;28;20441;-72
2023/02/06 06:53:38;;;;;;;27.85;4.43;;;4.30;99.90;;;;;;5032725;28;20052;-74
2023/02/06 06:56:05;;;;;;;29.42;5.68;;;4.20;99.90;;;;;;5033221;28;20386;-74
2023/02/06 06:58:31;;;;;;;25.05;5.68;;;4.40;99.90;;;;;;5033785;28;20037;-74
2023/02/06 07:00:56;;;;;;;29.30;6.20;;;4.30;99.90;;;;;;5033091;28;20048;-73
2023/02/06 07:03:22;;;;;;;22.23;6.00;;;4.40;99.90;;;;;;5016204;28;20457;-74
2023/02/06 07:05:47;;;;;;;23.67;5.18;;;4.30;99.90;;;;;;5033069;28;20052;-74
2023/02/06 07:08:13;;;;;;;29.63;7.05;;;4.20;99.90;;;;;;5034226;28;20063;-74
2023/02/06 07:10:38;;;;;;;25.73;4.60;;;4.40;99.90;;;;;;5033016;28;20033;-74
2023/02/06 07:13:04;;;;;;;30.42;5.70;;;4.30;99.90;;;;;;5032508;28;20477;-74
2023/02/06 07:15:30;;;;;;;23.75;6.15;;;4.20;99.90;;;;;;5033106;28;20038;-74
2023/02/06 07:17:55;;;;;;;29.23;5.82;;;4.20;99.90;;;;;;5034163;28;20041;-75
2023/02/06 07:20:21;;;;;;;28.92;5.38;;;4.40;99.90;;;;;;5033010;28;20045;-75
2023/02/06 07:22:48;;;;;;;25.67;4.93;;;4.20;99.90;;;;;;5032332;28;20493;-75
2023/02/06 07:25:13;;;;;;;22.67;4.97;;;4.30;99.90;;;;;;5033056;28;20045;-75
2023/02/06 07:27:39;;;;;;;25.95;4.80;;;4.30;99.90;;;;;;5032703;28;20087;-74
2023/02/06 07:30:05;;;;;;;22.63;5.53;;;4.50;99.90;;;;;;5033880;28;20049;-74
2023/02/06 07:32:34;;;;;;;29.92;5.13;;;4.50;99.90;;;;;;5032227;28;20048;-74
2023/02/06 07:34:59;;;;;;;21.55;4.90;;;4.30;99.90;;;;;;5032407;28;20045;-74
2023/02/06 07:37:25;;;;;;;24.52;4.85;;;4.50;99.90;;;;;;5032456;28;20049;-75
2023/02/06 07:39:50;;;;;;;21.60;5.07;;;4.40;99.90;;;;;;5032782;28;20053;-74
2023/02/06 07:42:16;;;;;;;31.65;7.38;;;4.20;99.90;;;;;;5032069;28;20057;-75
2023/02/06 07:44:41;;;;;;;24.02;4.90;;;4.40;99.90;;;;;;5032406;28;20038;-74
2023/02/06 07:47:08;;;;;;;40.58;6.30;;;4.50;99.90;;;;;;5032608;28;20045;-74
2023/02/06 07:49:34;;;;;;;26.42;5.95;;;4.60;99.90;;;;;;5032300;28;20042;-74
2023/02/06 07:51:59;;;;;;;25.15;5.50;;;4.50;99.90;;;;;;5032127;28;20164;-74
2023/02/06 07:54:25;;;;;;;32.60;6.57;;;4.40;99.90;;;;;;5032491;28;20084;-74
2023/02/06 07:56:50;;;;;;;26.73;5.35;;;4.30;99.90;;;;;;5032235;28;20052;-74
2023/02/06 07:59:16;;;;;;;27.45;7.43;;;4.50;99.90;;;;;;5015697;28;20409;-74
2023/02/06 08:01:42;;;;;;;20.85;5.10;;;4.60;99.90;;;;;;5031931;28;20049;-74
2023/02/06 08:04:08;;;;;;;19.67;4.90;;;4.40;99.90;;;;;;5031764;28;20045;-74
2023/02/06 08:06:34;;;;;;;29.20;6.47;;;4.60;99.90;;;;;;5033479;28;20053;-74
2023/02/06 08:08:59;;;;;;;25.27;5.72;;;4.60;99.90;;;;;;5033404;28;20038;-74
2023/02/06 08:11:28;;;;;;;29.33;5.78;;;4.50;99.90;;;;;;5032171;28;20037;-74
2023/02/06 08:13:54;;;;;;;29.13;5.82;;;4.50;99.90;;;;;;5032691;28;20095;-74
2023/02/06 08:16:21;;;;;;;24.98;6.47;;;4.70;99.90;;;;;;5031885;28;20436;-74
2023/02/06 08:18:47;;;;;;;27.58;5.78;;;4.70;99.90;;;;;;5033262;28;20078;-74
2023/02/06 08:21:20;;;;;;;24.45;5.80;;;4.70;99.90;;;;;;5033019;28;20077;-74
2023/02/06 08:23:47;;;;;;;23.95;6.78;;;4.70;99.90;;;;;;5032634;28;20045;-74
2023/02/06 08:26:17;;;;;;;26.67;6.53;;;4.80;99.90;;;;;;5031638;28;20087;-74
2023/02/06 08:28:47;;;;;;;27.27;6.50;;;4.70;99.90;;;;;;5032888;28;20041;-74
2023/02/06 08:31:25;;;;;;;27.88;6.07;;;4.90;99.90;;;;;;5033012;28;20405;-74
2023/02/06 08:33:51;;;;;;;34.90;7.85;;;4.90;99.90;;;;;;5032672;28;20107;-74
2023/02/06 08:36:19;;;;;;;22.73;6.50;;;4.90;99.90;;;;;;5031695;28;20140;-74
2023/02/06 08:38:45;;;;;;;33.30;9.07;;;5.00;99.90;;;;;;5031374;28;20042;-74
2023/02/06 08:41:20;;;;;;;27.88;8.23;;;4.80;99.90;;;;;;5031127;28;20038;-74
2023/02/06 08:43:48;;;;;;;25.95;6.15;;;4.90;99.90;;;;;;5030798;28;20041;-74
2023/02/06 08:46:15;;;;;;;25.75;7.45;;;5.10;99.90;;;;;;5031242;28;20045;-74
2023/02/06 08:48:40;;;;;;;28.48;6.47;;;5.00;99.90;;;;;;5031448;28;20460;-74
2023/02/06 08:51:08;;;;;;;35.42;7.97;;;5.20;99.90;;;;;;5031398;28;20132;-74
2023/02/06 08:53:33;;;;;;;22.15;7.30;;;5.30;99.90;;;;;;5031127;28;20455;-74
2023/02/06 08:56:01;;;;;;;29.15;7.85;;;5.20;99.90;;;;;;5032337;28;20041;-74
2023/02/06 08:58:27;;;;;;;33.60;7.65;;;5.10;99.90;;;;;;5032511;28;20041;-74
2023/02/06 09:00:53;;;;;;;22.75;7.20;;;5.10;99.90;;;;;;5031250;28;20120;-75
2023/02/06 09:03:20;;;;;;;27.92;7.65;;;5.20;99.90;;;;;;5018764;28;20038;-74
2023/02/06 09:05:45;;;;;;;35.30;8.00;;;5.10;99.90;;;;;;5010762;28;20525;-74
2023/02/06 09:08:11;;;;;;;28.35;7.85;;;5.40;99.90;;;;;;4994296;28;20042;-74
2023/02/06 09:10:36;;;;;;;32.38;8.15;;;5.40;99.90;;;;;;5010879;28;20046;-74
2023/02/06 09:13:02;;;;;;;30.50;7.55;;;5.40;99.90;;;;;;4996896;28;20041;-73
2023/02/06 09:15:28;;;;;;;39.15;9.25;;;5.40;99.90;;;;;;5010814;28;20048;-74
2023/02/06 09:17:53;;;;;;;33.55;8.02;;;5.50;99.90;;;;;;5006748;28;20045;-74
2023/02/06 09:20:19;;;;;;;26.88;7.15;;;5.50;99.90;;;;;;5000604;28;20038;-74
2023/02/06 09:22:45;;;;;;;35.60;8.07;;;5.50;99.90;;;;;;5009923;28;20038;-74
2023/02/06 09:25:11;;;;;;;37.92;8.88;;;5.70;99.90;;;;;;5010449;28;20453;-74
2023/02/06 09:27:36;;;;;;;32.92;7.63;;;5.70;99.90;;;;;;4994122;28;20121;-74
2023/02/06 09:30:03;;;;;;;28.88;7.70;;;5.80;99.90;;;;;;5011696;28;20096;-76
2023/02/06 09:32:28;;;;;;;35.67;8.32;;;5.80;99.90;;;;;;5010115;28;20042;-74
2023/02/06 09:34:54;;;;;;;33.08;7.82;;;5.80;99.90;;;;;;5007994;28;20046;-74
2023/02/06 09:37:20;;;;;;;31.77;7.75;;;5.80;99.90;;;;;;5000327;28;20050;-74
2023/02/06 09:39:46;;;;;;;32.97;8.00;;;5.80;99.90;;;;;;5010191;28;20057;-75
2023/02/06 09:42:29;;;;;;;33.80;8.43;;;6.00;99.90;;;;;;5010531;28;20042;-74
2023/02/06 09:45:15;;;;;;;32.47;9.32;;;5.90;99.90;;;;;;5010582;28;20030;-74
2023/02/06 09:47:48;;;;;;;34.17;8.52;;;6.20;99.90;;;;;;5010713;28;20609;-73
2023/02/06 09:50:38;;;;;;;33.80;7.78;;;6.10;99.90;;;;;;5010146;28;20037;-73
2023/02/06 09:53:41;;;;;;;27.63;8.43;;;6.20;99.90;;;;;;5010323;28;20041;-74
2023/02/06 09:56:25;;;;;;;29.13;8.15;;;6.30;99.90;;;;;;5014410;28;20053;-74
2023/02/06 09:59:16;;;;;;;31.10;7.32;;;6.30;99.90;;;;;;5015697;28;20538;-74
2023/02/06 10:01:56;;;;;;;37.28;9.00;;;6.30;99.90;;;;;;4982365;28;20506;-74
2023/02/06 10:04:31;;;;;;;27.92;7.05;;;6.40;99.90;;;;;;5015834;28;20049;-75
2023/02/06 10:07:34;;;;;;;38.88;9.73;;;6.50;99.90;;;;;;5014391;28;20084;-74
2023/02/06 10:10:11;;;;;;;35.35;8.27;;;6.60;99.90;;;;;;5014344;28;20091;-74
2023/02/06 10:13:17;;;;;;;33.40;8.20;;;6.60;99.90;;;;;;5014041;28;20048;-74
2023/02/06 10:15:47;;;;;;;38.53;7.22;;;6.80;99.90;;;;;;5006447;28;20065;-75
2023/02/06 10:18:20;;;;;;;37.45;7.72;;;6.80;99.90;;;;;;5014256;28;20052;-74
2023/02/06 10:20:51;;;;;;;37.63;7.22;;;6.90;99.90;;;;;;4997820;28;20502;-75
2023/02/06 10:23:43;;;;;;;26.38;6.75;;;6.90;99.90;;;;;;5013791;28;20502;-74
2023/02/06 10:26:16;;;;;;;26.75;6.65;;;7.00;99.90;;;;;;5014139;28;20103;-74
2023/02/06 10:28:54;;;;;;;33.60;7.88;;;7.00;99.90;;;;;;5014107;28;20041;-74
2023/02/06 10:31:20;;;;;;;38.15;8.48;;;7.20;99.90;;;;;;5014049;28;20041;-75
2023/02/06 10:34:23;;;;;;;25.23;6.40;;;7.00;99.90;;;;;;4997232;28;20042;-75
2023/02/06 10:37:00;;;;;;;36.58;7.63;;;7.20;99.90;;;;;;5015385;28;20046;-76
2023/02/06 10:39:48;;;;;;;26.83;6.75;;;7.20;99.90;;;;;;5013927;28;20046;-76
2023/02/06 10:42:50;;;;;;;27.98;7.05;;;7.20;99.90;;;;;;5014607;28;20513;-76
2023/02/06 10:45:32;;;;;;;26.23;7.05;;;7.30;99.90;;;;;;5013812;28;20490;-75
2023/02/06 10:48:08;;;;;;;29.92;6.13;;;7.30;99.90;;;;;;5015101;28;20116;-76
2023/02/06 10:50:38;;;;;;;28.40;5.63;;;7.10;99.90;;;;;;5014888;28;20509;-75
2023/02/06 10:53:18;;;;;;;33.33;6.60;;;7.20;99.90;;;;;;5014779;28;20081;-76
2023/02/06 10:55:58;;;;;;;30.85;5.82;;;7.30;99.90;;;;;;5013826;28;20616;-76
2023/02/06 10:58:48;;;;;;;29.17;5.40;;;7.30;99.90;;;;;;5014836;28;20536;-75
2023/02/06 11:01:16;;;;;;;32.17;7.95;;;7.40;99.90;;;;;;5013703;28;20042;-76
2023/02/06 11:03:49;;;;;;;33.25;5.90;;;7.40;99.90;;;;;;5013004;28;20056;-76
2023/02/06 11:06:19;;;;;;;32.72;7.35;;;7.50;99.90;;;;;;5013001;28;20034;-76
2023/02/06 11:08:46;;;;;;;30.67;5.88;;;7.50;99.90;;;;;;5013325;28;20045;-76
2023/02/06 11:11:30;;;;;;;29.48;5.72;;;7.60;99.90;;;;;;5014542;28;20049;-76
2023/02/06 11:14:03;;;;;;;32.40;5.63;;;7.60;99.90;;;;;;5012827;28;20049;-75
2023/02/06 11:16:30;;;;;;;18.02;5.03;;;7.70;99.90;;;;;;4997039;28;20045;-76
2023/02/06 11:18:59;;;;;;;28.63;4.97;;;7.70;99.90;;;;;;5013072;28;20050;-75
2023/02/06 11:21:45;;;;;;;14.73;4.30;;;7.60;99.90;;;;;;5012983;28;20058;-75
2023/02/06 11:24:14;;;;;;;32.08;6.70;;;7.60;99.90;;;;;;5015244;28;20045;-80
2023/02/06 11:26:48;;;;;;;22.73;4.15;;;7.70;99.90;;;;;;5012800;28;20524;-79
2023/02/06 11:29:19;;;;;;;23.42;5.30;;;7.90;99.90;;;;;;5015942;28;20041;-79
2023/02/06 11:31:57;;;;;;;24.63;5.63;;;7.80;99.90;;;;;;5006530;28;20105;-79
2023/02/06 11:34:37;;;;;;;23.77;4.85;;;7.90;99.90;;;;;;5005674;28;20089;-78
2023/02/06 11:37:23;;;;;;;18.67;4.75;;;7.90;99.90;;;;;;5018007;28;20037;-80
2023/02/06 11:39:48;;;;;;;34.85;5.63;;;8.00;99.90;;;;;;5006475;28;20057;-79
2023/02/06 11:42:23;;;;;;;21.45;5.30;;;8.00;99.90;;;;;;5033496;28;20556;-79
2023/02/06 11:44:50;;;;;;;20.35;4.63;;;8.20;99.90;;;;;;5032369;28;20128;-75
2023/02/06 11:47:23;;;;;;;16.83;4.50;;;8.10;99.90;;;;;;5033741;28;20060;-75
2023/02/06 11:49:49;;;;;;;21.15;3.85;;;8.10;99.90;;;;;;5033776;28;20045;-75
2023/02/06 11:52:30;;;;;;;20.98;4.70;;;8.10;99.90;;;;;;5033274;28;20456;-75
2023/02/06 11:55:00;;;;;;;24.60;5.40;;;8.00;99.90;;;;;;5033491;28;20034;-75
2023/02/06 11:57:26;;;;;;;26.23;5.35;;;8.00;99.90;;;;;;5033359;28;20541;-75
2023/02/06 12:00:19;;;;;;;22.85;4.20;;;8.00;99.90;;;;;;5033517;28;20037;-75
2023/02/06 12:02:53;;;;;;;19.33;4.40;;;7.90;99.90;;;;;;5031691;28;20506;-75
2023/02/06 12:05:20;;;;;;;22.35;3.50;;;7.80;99.90;;;;;;5032127;28;20045;-75
2023/02/06 12:07:53;;;;;;;20.10;3.88;;;7.90;99.90;;;;;;5033157;28;20112;-75
2023/02/06 12:10:22;;;;;;;17.05;3.67;;;7.80;99.90;;;;;;5032314;28;20409;-75
2023/02/06 12:12:52;;;;;;;24.55;4.57;;;8.00;99.90;;;;;;5031673;28;20037;-75
2023/02/06 12:15:25;;;;;;;20.10;4.03;;;8.00;99.90;;;;;;5033113;28;20133;-75
2023/02/06 12:17:57;;;;;;;;;;;8.00;99.90;;;;;;5032278;28;20046;-75
2023/02/06 12:20:27;;;;;;;16.80;3.45;;;8.00;99.90;;;;;;5033128;28;19921;-75
2023/02/06 12:23:05;;;;;;;16.17;3.25;;;7.90;99.90;;;;;;5031626;28;20037;-75
2023/02/06 12:25:38;;;;;;;12.60;3.28;;;8.00;99.90;;;;;;5033146;28;20033;-76
2023/02/06 12:28:31;;;;;;;10.20;2.58;;;8.00;99.90;;;;;;5032124;28;20102;-74
2023/02/06 12:31:03;;;;;;;20.63;5.65;;;8.10;99.90;;;;;;5032842;28;20037;-74
2023/02/06 12:33:36;;;;;;;21.98;3.40;;;8.30;99.90;;;;;;5030786;28;20069;-74
2023/02/06 12:36:11;;;;;;;14.93;4.72;;;8.30;99.90;;;;;;5032762;28;20580;-74
2023/02/06 12:39:11;;;;;;;11.45;3.47;;;8.30;99.90;;;;;;5032760;28;20064;-74
2023/02/06 12:41:54;;;;;;;18.50;3.35;;;8.30;99.90;;;;;;5032782;28;20386;-74
2023/02/06 12:44:33;;;;;;;12.27;2.83;;;8.30;99.90;;;;;;5032563;28;20037;-74
2023/02/06 12:47:23;;;;;;;17.38;3.17;;;8.20;99.90;;;;;;5032416;28;20033;-74
2023/02/06 12:49:57;;;;;;;14.65;3.15;;;8.20;99.90;;;;;;5032269;28;20524;-74
2023/02/06 12:52:29;;;;;;;10.75;2.95;;;8.30;99.90;;;;;;5031917;28;20073;-74
2023/02/06 12:55:17;;;;;;;15.10;3.17;;;8.40;99.90;;;;;;5030358;28;20379;-74
2023/02/06 12:57:43;;;;;;;12.30;3.55;;;8.40;99.90;;;;;;5032170;28;20045;-75
2023/02/06 13:00:31;;;;;;;17.02;2.95;;;8.40;99.90;;;;;;5032143;28;20506;-74
2023/02/06 13:03:13;;;;;;;10.05;2.15;;;8.50;99.90;;;;;;5031601;28;20053;-74
2023/02/06 13:05:42;;;;;;;19.23;3.72;;;8.50;99.90;;;;;;5030731;28;20038;-74